createdAt,value
2018-01-31T01:52:32.089Z,101367.30
2018-01-31T01:54:57.855Z,101359.49
2018-01-31T01:57:23.618Z,101351.20
2018-01-31T01:59:49.367Z,101348.17
2018-01-31T02:02:15.123Z,101336.03
2018-01-31T02:04:40.892Z,101322.98
2018-01-31T02:07:06.650Z,101305.99
2018-01-31T02:09:32.407Z,101295.63
2018-01-31T02:11:58.176Z,101291.72
2018-01-31T02:14:23.944Z,101289.18
2018-01-31T02:16:49.731Z,101288.83
2018-01-31T02:19:15.475Z,101284.93
2018-01-31T02:21:41.238Z,101277.56
2018-01-31T02:24:06.999Z,101270.59
2018-01-31T02:26:32.774Z,101259.38
2018-01-31T02:28:58.530Z,101253.30
2018-01-31T02:31:24.291Z,101254.18
2018-01-31T02:33:50.058Z,101245.05
2018-01-31T02:36:15.806Z,101237.25
2018-01-31T02:38:53.881Z,101226.80
2018-01-31T02:41:19.645Z,101224.62
2018-01-31T02:43:45.411Z,101218.98
2018-01-31T02:46:11.164Z,101210.70
2018-01-31T02:48:36.934Z,101198.95
2018-01-31T02:51:02.696Z,101197.24
2018-01-31T02:53:28.459Z,101200.34
2018-01-31T02:55:54.211Z,101190.78
2018-01-31T02:58:20.004Z,101187.75
2018-01-31T03:00:45.776Z,101184.28
2018-01-31T03:03:11.547Z,101186.08
2018-01-31T03:05:37.303Z,101170.42
2018-01-31T03:08:03.079Z,101161.29
2018-01-31T03:10:28.835Z,101144.34
2018-01-31T03:12:54.602Z,101139.58
2018-01-31T03:15:20.362Z,101138.31
2018-01-31T03:17:46.135Z,101129.19
2018-01-31T03:20:11.878Z,101118.80
2018-01-31T03:22:37.623Z,101104.84
2018-01-31T03:25:03.383Z,101090.91
2018-01-31T03:27:29.139Z,101080.91
2018-01-31T03:29:54.906Z,101067.42
2018-01-31T03:32:20.675Z,101063.02
2018-01-31T03:34:46.435Z,101059.14
2018-01-31T03:37:12.191Z,101041.77
2018-01-31T03:39:37.959Z,101031.31
2018-01-31T03:42:03.706Z,101030.06
2018-01-31T03:44:29.472Z,101019.16
2018-01-31T03:46:55.227Z,101018.27
2018-01-31T03:49:20.986Z,101005.62
2018-01-31T03:51:46.746Z,100999.09
2018-01-31T03:54:12.502Z,100982.13
2018-01-31T03:56:38.266Z,100975.17
2018-01-31T03:59:04.022Z,100976.03
2018-01-31T04:01:29.783Z,100963.84
2018-01-31T04:03:55.534Z,100944.23
2018-01-31T04:06:21.294Z,100939.02
2018-01-31T04:08:47.064Z,100935.56
2018-01-31T04:11:12.876Z,100937.70
2018-01-31T04:13:38.587Z,100928.14
2018-01-31T04:16:04.358Z,100921.18
2018-01-31T04:18:30.105Z,100912.90
2018-01-31T04:20:55.867Z,100904.63
2018-01-31T04:23:21.618Z,100898.52
2018-01-31T04:25:47.382Z,100895.48
2018-01-31T04:28:13.135Z,100888.08
2018-01-31T04:30:38.898Z,100888.06
2018-01-31T04:33:04.661Z,100868.03
2018-01-31T04:35:30.429Z,100854.53
2018-01-31T04:37:56.171Z,100848.89
2018-01-31T04:40:21.924Z,100845.42
2018-01-31T04:42:47.699Z,100839.77
2018-01-31T04:45:13.455Z,100834.96
2018-01-31T04:47:39.207Z,100826.69
2018-01-31T04:50:04.973Z,100813.22
2018-01-31T04:52:30.743Z,100805.84
2018-01-31T04:54:56.486Z,100781.44
2018-01-31T04:57:22.228Z,100763.59
2018-01-31T04:59:47.963Z,100740.05
2018-01-31T05:02:13.713Z,100745.30
2018-01-31T05:04:39.461Z,100740.93
2018-01-31T05:07:05.231Z,100732.69
2018-01-31T05:09:30.992Z,100733.56
2018-01-31T05:11:56.767Z,100725.72
2018-01-31T05:14:22.509Z,100711.77
2018-01-31T05:16:48.266Z,100697.84
2018-01-31T05:19:14.091Z,100696.09
2018-01-31T05:21:39.865Z,100688.69
2018-01-31T05:24:05.609Z,100671.72
2018-01-31T05:26:31.375Z,100661.70
2018-01-31T05:28:57.132Z,100660.39
2018-01-31T05:31:22.896Z,100657.78
2018-01-31T05:33:48.650Z,100643.84
2018-01-31T05:36:14.395Z,100643.84
2018-01-31T05:38:40.162Z,100629.45
2018-01-31T05:41:05.907Z,100627.73
2018-01-31T05:43:32.455Z,100629.87
2018-01-31T05:45:58.207Z,100625.53
2018-01-31T05:48:23.968Z,100624.67
2018-01-31T05:50:49.711Z,100615.48
2018-01-31T05:53:15.467Z,100603.28
2018-01-31T05:55:41.223Z,100591.95
2018-01-31T05:58:07.034Z,100568.82
2018-01-31T06:00:32.798Z,100573.19
2018-01-31T06:02:58.583Z,100574.52
2018-01-31T06:05:24.335Z,100561.41
2018-01-31T06:07:50.105Z,100551.84
2018-01-31T06:10:15.854Z,100538.33
2018-01-31T06:12:41.614Z,100528.72
2018-01-31T06:15:07.363Z,100515.66
2018-01-31T06:17:33.107Z,100504.73
2018-01-31T06:19:58.859Z,100488.17
2018-01-31T06:22:24.611Z,100482.48
2018-01-31T06:24:50.375Z,100474.65
2018-01-31T06:27:16.125Z,100465.46
2018-01-31T06:29:41.890Z,100462.86
2018-01-31T06:32:07.647Z,100453.70
2018-01-31T06:34:33.408Z,100439.31
2018-01-31T06:36:59.157Z,100429.25
2018-01-31T06:39:24.924Z,100421.37
2018-01-31T06:41:50.684Z,100420.08
2018-01-31T06:44:16.457Z,100417.06
2018-01-31T06:46:42.211Z,100408.76
2018-01-31T06:49:07.971Z,100406.61
2018-01-31T06:51:33.730Z,100406.61
2018-01-31T06:53:59.503Z,100403.11
2018-01-31T06:56:25.243Z,100396.59
2018-01-31T06:58:51.015Z,100388.77
2018-01-31T07:01:16.780Z,100374.83
2018-01-31T07:03:42.550Z,100367.85
2018-01-31T07:06:08.310Z,100359.17
2018-01-31T07:08:34.092Z,100345.64
2018-01-31T07:10:59.843Z,100342.16
2018-01-31T07:13:25.609Z,100337.33
2018-01-31T07:15:51.406Z,100326.43
2018-01-31T07:18:17.131Z,100322.53
2018-01-31T07:20:42.886Z,100317.69
2018-01-31T07:23:08.645Z,100312.02
2018-01-31T07:25:34.415Z,100301.11
2018-01-31T07:28:00.172Z,100291.54
2018-01-31T07:30:25.935Z,100287.59
2018-01-31T07:32:51.698Z,100278.46
2018-01-31T07:35:17.471Z,100271.44
2018-01-31T07:37:43.222Z,100260.55
2018-01-31T07:40:08.986Z,100247.45
2018-01-31T07:42:34.738Z,100248.70
2018-01-31T07:45:00.538Z,100243.87
2018-01-31T07:47:26.278Z,100241.25
2018-01-31T07:49:52.028Z,100230.75
2018-01-31T07:52:17.774Z,100228.09
2018-01-31T07:54:43.531Z,100227.14
2018-01-31T07:57:09.287Z,100217.99
2018-01-31T07:59:35.051Z,100200.50
2018-01-31T08:02:00.795Z,100197.43
2018-01-31T08:04:26.531Z,100190.91
2018-01-31T08:06:52.295Z,100179.48
2018-01-31T08:09:18.027Z,100172.01
2018-01-31T08:11:43.799Z,100154.45
2018-01-31T08:14:09.555Z,100161.38
2018-01-31T08:16:35.331Z,100163.06
2018-01-31T08:19:01.087Z,100154.27
2018-01-31T08:21:26.862Z,100147.58
2018-01-31T08:23:52.611Z,100140.89
2018-01-31T08:26:18.367Z,100135.52
2018-01-31T08:28:44.122Z,100128.45
2018-01-31T08:31:09.891Z,100120.55
2018-01-31T08:33:35.647Z,100118.32
2018-01-31T08:36:01.417Z,100102.55
2018-01-31T08:38:27.166Z,100102.04
2018-01-31T08:40:52.935Z,100105.54
2018-01-31T08:43:18.703Z,100096.78
2018-01-31T08:45:44.459Z,100098.45
2018-01-31T08:48:10.220Z,100082.68
2018-01-31T08:50:35.978Z,100088.77
2018-01-31T08:53:01.768Z,100082.99
2018-01-31T08:55:27.520Z,100075.02
2018-01-31T08:57:53.278Z,100052.61
2018-01-31T09:00:19.035Z,100053.45
2018-01-31T09:02:44.794Z,100047.66
2018-01-31T09:05:10.544Z,100046.70
2018-01-31T09:07:36.354Z,100044.00
2018-01-31T09:10:02.091Z,100033.86
2018-01-31T09:12:27.853Z,100034.16
2018-01-31T09:14:53.626Z,100017.86
2018-01-31T09:17:19.382Z,100013.40
2018-01-31T09:19:45.150Z,100007.56
2018-01-31T09:22:10.911Z,99998.66
2018-01-31T09:24:36.671Z,99986.82
2018-01-31T09:27:02.444Z,99993.19
2018-01-31T09:29:28.207Z,99979.49
2018-01-31T09:31:53.968Z,99978.38
2018-01-31T09:34:19.727Z,99964.14
2018-01-31T09:36:45.481Z,99955.66
2018-01-31T09:39:11.255Z,99956.61
2018-01-31T09:41:37.006Z,99943.14
2018-01-31T09:44:02.763Z,99937.73
2018-01-31T09:46:28.519Z,99936.27
2018-01-31T09:48:54.288Z,99934.97
2018-01-31T09:51:20.034Z,99931.89
2018-01-31T09:53:45.803Z,99925.92
2018-01-31T09:56:11.566Z,99913.41
2018-01-31T09:58:37.331Z,99911.88
2018-01-31T10:01:03.098Z,99915.27
2018-01-31T10:03:28.865Z,99911.11
2018-01-31T10:05:54.624Z,99905.28
2018-01-31T10:08:20.384Z,99910.33
2018-01-31T10:10:46.138Z,99912.27
2018-01-31T10:13:11.894Z,99901.56
2018-01-31T10:15:37.643Z,99897.52
2018-01-31T10:18:03.391Z,99907.03
2018-01-31T10:20:29.148Z,99901.64
2018-01-31T10:22:54.898Z,99897.86
2018-01-31T10:25:20.659Z,99892.64
2018-01-31T10:27:46.416Z,99898.20
2018-01-31T10:30:12.171Z,99892.15
2018-01-31T10:32:37.939Z,99890.75
2018-01-31T10:35:03.711Z,99878.31
2018-01-31T10:37:29.467Z,99877.83
2018-01-31T10:39:55.218Z,99879.89
2018-01-31T10:42:20.958Z,99865.41
2018-01-31T10:44:46.723Z,99866.34
2018-01-31T10:47:12.483Z,99852.81
2018-01-31T10:49:38.234Z,99849.13
2018-01-31T10:52:03.989Z,99843.81
2018-01-31T10:57:29.099Z,99833.08
2018-01-31T10:59:21.283Z,99832.06
2018-01-31T11:01:47.048Z,99824.89
2018-01-31T11:04:12.798Z,99823.42
2018-01-31T11:06:38.566Z,99818.16
2018-01-31T11:09:04.320Z,99808.89
2018-01-31T11:11:30.101Z,99809.42
2018-01-31T11:13:55.843Z,99803.95
2018-01-31T11:16:21.607Z,99778.94
2018-01-31T11:18:47.371Z,99788.44
2018-01-31T11:21:13.136Z,99795.84
2018-01-31T11:23:38.887Z,99782.63
2018-01-31T11:26:04.659Z,99778.42
2018-01-31T11:28:30.419Z,99779.02
2018-01-31T11:30:56.175Z,99765.34
2018-01-31T11:33:21.943Z,99765.67
2018-01-31T11:35:47.718Z,99766.61
2018-01-31T11:38:13.468Z,99761.35
2018-01-31T11:40:39.246Z,99764.35
2018-01-31T11:43:05.015Z,99751.80
2018-01-31T11:45:30.775Z,99733.06
2018-01-31T11:47:56.522Z,99750.63
2018-01-31T11:50:22.272Z,99738.39
2018-01-31T11:52:48.039Z,99735.75
2018-01-31T11:55:13.801Z,99727.20
2018-01-31T11:57:39.557Z,99726.86
2018-01-31T12:00:05.307Z,99716.39
2018-01-31T12:02:31.067Z,99713.31
2018-01-31T12:04:56.828Z,99715.00
2018-01-31T12:07:22.599Z,99707.45
2018-01-31T12:09:48.371Z,99707.33
2018-01-31T12:15:22.222Z,99687.84
2018-01-31T12:17:47.982Z,99687.41
2018-01-31T12:20:26.150Z,99692.97
2018-01-31T12:23:04.252Z,99686.65
2018-01-31T12:25:41.242Z,99699.34
2018-01-31T12:28:19.299Z,99678.44
2018-01-31T12:33:59.466Z,99678.92
2018-01-31T12:39:25.863Z,99700.99
2018-01-31T12:41:51.486Z,99707.22
2018-01-31T12:44:17.115Z,99709.08
2018-01-31T12:46:55.226Z,99686.56
2018-01-31T12:49:33.450Z,99679.23
2018-01-31T12:52:11.755Z,99677.47
2018-01-31T12:54:49.978Z,99652.86
2018-01-31T12:57:28.314Z,99649.35
2018-01-31T13:00:06.615Z,99660.78
2018-01-31T13:06:00.378Z,99651.02
2018-01-31T13:08:38.548Z,99641.47
2018-01-31T13:14:10.238Z,99626.63
2018-01-31T13:19:47.162Z,99612.44
2018-01-31T13:22:25.499Z,99606.79
2018-01-31T13:25:03.724Z,99603.62
2018-01-31T13:27:50.979Z,99604.94
2018-01-31T13:30:29.323Z,99590.05
2018-01-31T13:33:13.762Z,99590.34
2018-01-31T13:35:51.918Z,99588.41
2018-01-31T13:38:30.114Z,99590.49
2018-01-31T13:41:08.399Z,99586.98
2018-01-31T13:43:46.668Z,99564.20
2018-01-31T13:46:24.881Z,99558.95
2018-01-31T13:49:03.074Z,99552.52
2018-01-31T13:51:41.295Z,99554.90
2018-01-31T13:54:19.606Z,99548.66
2018-01-31T13:56:57.795Z,99545.05
2018-01-31T13:59:36.023Z,99545.01
2018-01-31T14:02:03.728Z,99540.48
2018-01-31T14:04:41.901Z,99533.42
2018-01-31T14:07:20.113Z,99535.11
2018-01-31T14:09:58.358Z,99521.27
2018-01-31T14:12:36.567Z,99507.19
2018-01-31T14:15:14.775Z,99504.83
2018-01-31T14:17:53.066Z,99503.03
2018-01-31T14:20:31.272Z,99494.97
2018-01-31T14:23:09.439Z,99492.83
2018-01-31T14:25:47.597Z,99485.44
2018-01-31T14:28:25.737Z,99481.05
2018-01-31T14:31:04.023Z,99480.33
2018-01-31T14:33:42.310Z,99475.73
2018-01-31T14:36:11.818Z,99472.83
2018-01-31T14:38:37.449Z,99469.97
2018-01-31T14:41:03.079Z,99466.91
2018-01-31T14:43:28.699Z,99460.11
2018-01-31T14:45:54.339Z,99469.20
2018-01-31T14:48:19.990Z,99463.83
2018-01-31T14:50:45.638Z,99454.34
2018-01-31T14:53:11.262Z,99457.52
2018-01-31T14:55:36.894Z,99460.25
2018-01-31T14:58:02.547Z,99459.81
2018-01-31T15:00:28.175Z,99459.37
2018-01-31T15:02:53.819Z,99454.72
2018-01-31T15:05:19.442Z,99445.95
2018-01-31T15:07:45.082Z,99446.98
2018-01-31T15:10:10.711Z,99442.22
2018-01-31T15:12:36.338Z,99435.26
2018-01-31T15:15:01.963Z,99426.22
2018-01-31T15:17:27.598Z,99425.83
2018-01-31T15:19:53.223Z,99418.39
2018-01-31T15:22:18.856Z,99414.34
2018-01-31T15:24:44.470Z,99408.84
2018-01-31T15:27:10.107Z,99396.86
2018-01-31T15:29:35.734Z,99393.38
2018-01-31T15:32:01.371Z,99384.55
2018-01-31T15:34:26.994Z,99382.80
2018-01-31T15:36:52.624Z,99398.73
2018-01-31T15:39:18.255Z,99406.51
2018-01-31T15:41:43.866Z,99415.80
2018-01-31T15:44:09.522Z,99451.42
2018-01-31T15:46:35.151Z,99456.77
2018-01-31T15:49:00.779Z,99464.47
2018-01-31T15:51:26.407Z,99464.02
2018-01-31T15:53:52.052Z,99463.70
2018-01-31T15:56:17.675Z,99474.80
2018-01-31T15:58:43.308Z,99469.23
2018-01-31T16:01:08.934Z,99459.84
2018-01-31T16:03:34.560Z,99456.16
2018-01-31T16:06:00.179Z,99433.28
2018-01-31T16:08:25.822Z,99430.78
2018-01-31T16:10:51.451Z,99418.20
2018-01-31T16:13:17.067Z,99422.61
2018-01-31T16:15:42.710Z,99431.78
2018-01-31T16:18:08.470Z,99426.06
2018-01-31T16:20:46.403Z,99422.73
2018-01-31T16:23:12.147Z,99422.84
2018-01-31T16:25:37.908Z,99423.56
2018-01-31T16:31:13.519Z,99449.95
2018-01-31T16:33:39.283Z,99447.81
2018-01-31T16:36:05.064Z,99453.09
2018-01-31T16:38:30.807Z,99447.02
2018-01-31T16:40:56.576Z,99432.06
2018-01-31T16:43:22.355Z,99416.27
2018-01-31T16:45:48.126Z,99410.59
2018-01-31T16:48:13.874Z,99416.81
2018-01-31T16:50:39.635Z,99430.91
2018-01-31T16:53:05.414Z,99427.30
2018-01-31T16:55:31.180Z,99427.97
2018-01-31T16:57:56.939Z,99440.23
2018-01-31T17:00:22.695Z,99430.15
2018-01-31T17:02:48.470Z,99438.59
2018-01-31T17:05:14.222Z,99437.72
2018-01-31T17:07:39.994Z,99438.56
2018-01-31T17:10:05.752Z,99445.66
2018-01-31T17:12:31.543Z,99443.03
2018-01-31T17:14:57.293Z,99435.69
2018-01-31T17:17:23.040Z,99427.36
2018-01-31T17:19:48.787Z,99427.08
2018-01-31T17:22:14.536Z,99416.92
2018-01-31T17:24:40.278Z,99412.56
2018-01-31T17:27:06.047Z,99408.67
2018-01-31T17:29:31.807Z,99399.11
2018-01-31T17:31:57.572Z,99389.98
2018-01-31T17:34:23.336Z,99377.44
2018-01-31T17:36:49.100Z,99381.38
2018-01-31T17:39:14.868Z,99367.09
2018-01-31T17:41:40.602Z,99352.73
2018-01-31T17:44:06.351Z,99335.12
2018-01-31T17:46:32.103Z,99343.02
2018-01-31T17:48:57.887Z,99342.94
2018-01-31T17:51:23.646Z,99348.69
2018-01-31T17:53:49.424Z,99345.16
2018-01-31T17:56:15.185Z,99341.98
2018-01-31T17:58:40.954Z,99342.85
2018-01-31T18:01:06.715Z,99343.37
2018-01-31T18:03:32.471Z,99357.30
2018-01-31T18:05:58.231Z,99375.06
2018-01-31T18:08:24.004Z,99378.56
2018-01-31T18:10:49.755Z,99381.02
2018-01-31T18:13:15.543Z,99381.02
2018-01-31T18:15:41.503Z,99376.58
2018-01-31T18:18:07.314Z,99374.79
2018-01-31T18:20:33.055Z,99367.89
2018-01-31T18:22:58.810Z,99362.49
2018-01-31T18:25:24.623Z,99368.64
2018-01-31T18:27:50.636Z,99371.06
2018-01-31T18:30:16.464Z,99369.67
2018-01-31T18:32:42.722Z,99370.23
2018-01-31T18:35:08.484Z,99363.09
2018-01-31T18:37:34.296Z,99356.45
2018-01-31T18:40:00.670Z,99348.92
2018-01-31T18:42:26.446Z,99342.85
2018-01-31T18:44:52.258Z,99341.15
2018-01-31T18:47:18.042Z,99347.22
2018-01-31T18:49:45.080Z,99352.45
2018-01-31T18:52:10.961Z,99359.47
2018-01-31T18:54:37.274Z,99355.16
2018-01-31T18:57:03.559Z,99371.34
2018-01-31T18:59:29.833Z,99379.11
2018-01-31T19:01:55.956Z,99374.71
2018-01-31T19:04:21.946Z,99371.38
2018-01-31T19:06:48.212Z,99362.22
2018-01-31T19:09:14.079Z,99366.86
2018-01-31T19:11:39.860Z,99371.38
2018-01-31T19:14:05.728Z,99381.92
2018-01-31T19:16:31.495Z,99381.48
2018-01-31T19:18:57.510Z,99378.08
2018-01-31T19:21:23.326Z,99374.98
2018-01-31T19:23:49.364Z,99358.55
2018-01-31T19:26:15.491Z,99352.92
2018-01-31T19:28:41.543Z,99357.33
2018-01-31T19:31:07.994Z,99365.10
2018-01-31T19:33:33.826Z,99365.61
2018-01-31T19:35:59.593Z,99367.28
2018-01-31T19:38:25.351Z,99375.14
2018-01-31T19:40:51.118Z,99371.89
2018-01-31T19:43:16.896Z,99362.92
2018-01-31T19:45:42.672Z,99369.43
2018-01-31T19:48:08.423Z,99435.05
2018-01-31T19:50:34.183Z,99440.58
2018-01-31T19:53:00.023Z,99437.83
2018-01-31T19:55:25.879Z,99439.45
2018-01-31T19:57:51.679Z,99441.58
2018-01-31T20:00:17.456Z,99430.88
2018-01-31T20:02:43.223Z,99432.47
2018-01-31T20:05:09.057Z,99425.37
2018-01-31T20:07:34.820Z,99415.89
2018-01-31T20:10:00.579Z,99402.70
2018-01-31T20:12:26.355Z,99402.13
2018-01-31T20:14:52.135Z,99400.84
2018-01-31T20:17:17.910Z,99403.08
2018-01-31T20:19:44.198Z,99414.95
2018-01-31T20:22:09.983Z,99413.24
2018-01-31T20:24:42.742Z,99389.77
2018-01-31T20:27:08.503Z,99396.55
2018-01-31T20:29:34.267Z,99393.14
2018-01-31T20:32:00.065Z,99397.88
2018-01-31T20:34:25.814Z,99414.30
2018-01-31T20:36:51.566Z,99415.97
2018-01-31T20:39:17.332Z,99401.11
2018-01-31T20:41:43.075Z,99402.93
2018-01-31T20:44:08.827Z,99403.80
2018-01-31T20:46:34.594Z,99399.42
2018-01-31T20:49:00.359Z,99397.25
2018-01-31T20:51:26.111Z,99392.39
2018-01-31T20:53:51.890Z,99382.41
2018-01-31T20:56:17.644Z,99379.81
2018-01-31T20:58:43.418Z,99379.86
2018-01-31T21:01:09.196Z,99381.84
2018-01-31T21:03:34.963Z,99383.61
2018-01-31T21:06:00.724Z,99375.20
2018-01-31T21:08:26.501Z,99371.61
2018-01-31T21:10:52.246Z,99372.06
2018-01-31T21:13:18.036Z,99370.19
2018-01-31T21:15:43.781Z,99375.98
2018-01-31T21:18:09.543Z,99376.39
2018-01-31T21:20:35.312Z,99375.41
2018-01-31T21:23:01.059Z,99381.50
2018-01-31T21:25:26.841Z,99378.13
2018-01-31T21:27:52.594Z,99379.41
2018-01-31T21:30:18.372Z,99375.09
2018-01-31T21:32:44.130Z,99376.83
2018-01-31T21:35:09.898Z,99370.81
2018-01-31T21:37:35.651Z,99362.94
2018-01-31T21:40:01.412Z,99371.58
2018-01-31T21:42:27.175Z,99369.00
2018-01-31T21:44:52.959Z,99375.80
2018-01-31T21:47:18.703Z,99373.27
2018-01-31T21:49:44.466Z,99373.48
2018-01-31T21:52:10.223Z,99369.67
2018-01-31T21:54:35.991Z,99358.63
2018-01-31T21:57:01.756Z,99356.56
2018-01-31T21:59:27.510Z,99362.57
2018-01-31T22:01:53.279Z,99362.17
2018-01-31T22:04:19.030Z,99361.55
2018-01-31T22:06:44.799Z,99365.73
2018-01-31T22:09:10.556Z,99361.81
2018-01-31T22:11:36.331Z,99366.41
2018-01-31T22:14:02.090Z,99363.39
2018-01-31T22:16:27.859Z,99354.72
2018-01-31T22:18:53.618Z,99356.30
2018-01-31T22:21:19.388Z,99359.50
2018-01-31T22:23:45.149Z,99359.00
2018-01-31T22:26:10.924Z,99358.19
2018-01-31T22:28:36.666Z,99351.31
2018-01-31T22:31:02.430Z,99353.95
2018-01-31T22:33:28.200Z,99348.67
2018-01-31T22:35:53.956Z,99355.54
2018-01-31T22:38:19.727Z,99356.27
2018-01-31T22:40:45.487Z,99354.56
2018-01-31T22:43:11.251Z,99360.63
2018-01-31T22:45:37.006Z,99361.71
2018-01-31T22:48:02.784Z,99356.95
2018-01-31T22:50:28.535Z,99359.56
2018-01-31T22:52:54.315Z,99355.63
2018-01-31T22:55:20.124Z,99353.91
2018-01-31T22:57:45.887Z,99360.55
2018-01-31T23:00:11.646Z,99352.66
2018-01-31T23:02:37.490Z,99360.59
2018-01-31T23:05:03.247Z,99357.09
2018-01-31T23:07:29.024Z,99353.96
2018-01-31T23:09:54.775Z,99355.32
2018-01-31T23:12:23.506Z,99360.72
2018-01-31T23:14:51.252Z,99365.78
2018-01-31T23:17:23.103Z,99369.23
2018-01-31T23:19:48.871Z,99363.97
2018-01-31T23:22:14.630Z,99367.94
2018-01-31T23:24:40.527Z,99354.55
2018-01-31T23:27:06.291Z,99352.73
2018-01-31T23:29:32.283Z,99360.19
2018-01-31T23:31:58.037Z,99359.75
2018-01-31T23:34:24.076Z,99360.61
2018-01-31T23:36:49.820Z,99361.52
2018-01-31T23:39:15.583Z,99362.33
2018-01-31T23:41:41.895Z,99359.72
2018-01-31T23:44:07.688Z,99363.02
2018-01-31T23:46:33.578Z,99359.20
2018-01-31T23:48:59.419Z,99362.88
2018-01-31T23:51:25.166Z,99351.87
2018-01-31T23:53:51.193Z,99354.59
2018-01-31T23:56:17.568Z,99351.27
2018-01-31T23:58:43.420Z,99345.73
